sensor_id;sensor_type;location;lat;lon;timestamp;temperature;humidity
74946;HTU21D;63509;45.250;38.102;2023-07-31T00:00:38;21.81;63.69
74946;HTU21D;63509;45.250;38.102;2023-07-31T00:03:04;21.82;63.79
74946;HTU21D;63509;45.250;38.102;2023-07-31T00:05:30;21.85;63.85
74946;HTU21D;63509;45.250;38.102;2023-07-31T00:07:56;21.89;63.98
74946;HTU21D;63509;45.250;38.102;2023-07-31T00:10:23;21.93;64.07
74946;HTU21D;63509;45.250;38.102;2023-07-31T00:12:49;21.99;64.10
74946;HTU21D;63509;45.250;38.102;2023-07-31T00:15:15;22.03;64.14
74946;HTU21D;63509;45.250;38.102;2023-07-31T00:17:41;22.08;64.21
74946;HTU21D;63509;45.250;38.102;2023-07-31T00:20:07;22.11;64.21
74946;HTU21D;63509;45.250;38.102;2023-07-31T00:22:33;22.13;64.21
74946;HTU21D;63509;45.250;38.102;2023-07-31T00:25:00;22.14;64.20
74946;HTU21D;63509;45.250;38.102;2023-07-31T00:27:26;22.14;64.16
74946;HTU21D;63509;45.250;38.102;2023-07-31T00:29:52;22.12;64.16
74946;HTU21D;63509;45.250;38.102;2023-07-31T00:32:18;22.09;64.18
74946;HTU21D;63509;45.250;38.102;2023-07-31T00:34:44;22.07;64.24
74946;HTU21D;63509;45.250;38.102;2023-07-31T00:37:10;22.04;64.31
74946;HTU21D;63509;45.250;38.102;2023-07-31T00:39:37;21.98;64.42
74946;HTU21D;63509;45.250;38.102;2023-07-31T00:42:03;21.97;64.56
74946;HTU21D;63509;45.250;38.102;2023-07-31T00:44:29;21.95;64.66
74946;HTU21D;63509;45.250;38.102;2023-07-31T00:46:56;21.93;64.77
74946;HTU21D;63509;45.250;38.102;2023-07-31T00:49:23;21.92;64.83
74946;HTU21D;63509;45.250;38.102;2023-07-31T00:51:49;21.91;64.85
74946;HTU21D;63509;45.250;38.102;2023-07-31T00:54:17;21.88;64.82
74946;HTU21D;63509;45.250;38.102;2023-07-31T00:56:45;21.83;64.76
74946;HTU21D;63509;45.250;38.102;2023-07-31T00:59:14;21.76;64.76
74946;HTU21D;63509;45.250;38.102;2023-07-31T01:01:40;21.65;64.77
74946;HTU21D;63509;45.250;38.102;2023-07-31T01:04:07;21.57;64.85
74946;HTU21D;63509;45.250;38.102;2023-07-31T01:09:16;21.45;64.63
74946;HTU21D;63509;45.250;38.102;2023-07-31T01:11:53;21.40;64.69
74946;HTU21D;63509;45.250;38.102;2023-07-31T01:14:22;21.34;64.91
74946;HTU21D;63509;45.250;38.102;2023-07-31T01:16:48;21.30;64.95
74946;HTU21D;63509;45.250;38.102;2023-07-31T01:19:15;21.25;65.02
74946;HTU21D;63509;45.250;38.102;2023-07-31T01:21:58;21.22;64.86
74946;HTU21D;63509;45.250;38.102;2023-07-31T01:24:39;21.16;64.87
74946;HTU21D;63509;45.250;38.102;2023-07-31T01:27:19;21.05;64.87
74946;HTU21D;63509;45.250;38.102;2023-07-31T01:30:00;20.94;64.98
74946;HTU21D;63509;45.250;38.102;2023-07-31T01:32:29;20.89;65.22
74946;HTU21D;63509;45.250;38.102;2023-07-31T01:34:58;20.85;65.24
74946;HTU21D;63509;45.250;38.102;2023-07-31T01:37:29;20.80;65.24
74946;HTU21D;63509;45.250;38.102;2023-07-31T01:39:58;20.74;65.41
74946;HTU21D;63509;45.250;38.102;2023-07-31T01:42:24;20.70;65.46
74946;HTU21D;63509;45.250;38.102;2023-07-31T01:44:51;20.68;65.51
74946;HTU21D;63509;45.250;38.102;2023-07-31T01:47:17;20.66;65.56
74946;HTU21D;63509;45.250;38.102;2023-07-31T01:49:43;20.63;65.61
74946;HTU21D;63509;45.250;38.102;2023-07-31T01:52:09;20.60;65.62
74946;HTU21D;63509;45.250;38.102;2023-07-31T01:54:35;20.58;65.62
74946;HTU21D;63509;45.250;38.102;2023-07-31T01:57:03;20.55;65.63
74946;HTU21D;63509;45.250;38.102;2023-07-31T01:59:29;20.54;65.67
74946;HTU21D;63509;45.250;38.102;2023-07-31T02:01:55;20.53;65.69
74946;HTU21D;63509;45.250;38.102;2023-07-31T02:04:22;20.50;65.69
74946;HTU21D;63509;45.250;38.102;2023-07-31T02:06:48;20.47;65.78
74946;HTU21D;63509;45.250;38.102;2023-07-31T02:09:14;20.47;65.79
74946;HTU21D;63509;45.250;38.102;2023-07-31T02:11:40;20.44;65.82
74946;HTU21D;63509;45.250;38.102;2023-07-31T02:14:06;20.43;65.85
74946;HTU21D;63509;45.250;38.102;2023-07-31T02:16:32;20.41;65.88
74946;HTU21D;63509;45.250;38.102;2023-07-31T02:19:00;20.39;65.92
74946;HTU21D;63509;45.250;38.102;2023-07-31T02:21:26;20.37;65.95
74946;HTU21D;63509;45.250;38.102;2023-07-31T02:23:52;20.37;66.04
74946;HTU21D;63509;45.250;38.102;2023-07-31T02:26:18;20.36;66.06
74946;HTU21D;63509;45.250;38.102;2023-07-31T02:28:44;20.35;66.16
74946;HTU21D;63509;45.250;38.102;2023-07-31T02:31:11;20.32;66.20
74946;HTU21D;63509;45.250;38.102;2023-07-31T02:33:37;20.31;66.28
74946;HTU21D;63509;45.250;38.102;2023-07-31T02:36:03;20.30;66.40
74946;HTU21D;63509;45.250;38.102;2023-07-31T02:38:29;20.30;66.41
74946;HTU21D;63509;45.250;38.102;2023-07-31T02:40:56;20.29;66.51
74946;HTU21D;63509;45.250;38.102;2023-07-31T02:43:22;20.27;66.56
74946;HTU21D;63509;45.250;38.102;2023-07-31T02:45:52;20.26;66.46
74946;HTU21D;63509;45.250;38.102;2023-07-31T02:48:19;20.26;66.72
74946;HTU21D;63509;45.250;38.102;2023-07-31T02:50:47;20.26;66.71
74946;HTU21D;63509;45.250;38.102;2023-07-31T02:53:13;20.28;66.78
74946;HTU21D;63509;45.250;38.102;2023-07-31T02:55:40;20.29;66.78
74946;HTU21D;63509;45.250;38.102;2023-07-31T02:58:06;20.26;66.82
74946;HTU21D;63509;45.250;38.102;2023-07-31T03:00:32;20.25;66.92
74946;HTU21D;63509;45.250;38.102;2023-07-31T03:02:58;20.20;67.01
74946;HTU21D;63509;45.250;38.102;2023-07-31T03:05:24;20.20;67.07
74946;HTU21D;63509;45.250;38.102;2023-07-31T03:07:51;20.21;67.20
74946;HTU21D;63509;45.250;38.102;2023-07-31T03:10:16;20.24;67.24
74946;HTU21D;63509;45.250;38.102;2023-07-31T03:12:46;20.24;67.14
74946;HTU21D;63509;45.250;38.102;2023-07-31T03:15:13;20.25;67.31
74946;HTU21D;63509;45.250;38.102;2023-07-31T03:17:39;20.26;67.35
74946;HTU21D;63509;45.250;38.102;2023-07-31T03:20:05;20.28;67.41
74946;HTU21D;63509;45.250;38.102;2023-07-31T03:22:32;20.29;67.50
74946;HTU21D;63509;45.250;38.102;2023-07-31T03:24:58;20.33;67.55
74946;HTU21D;63509;45.250;38.102;2023-07-31T03:27:24;20.35;67.61
74946;HTU21D;63509;45.250;38.102;2023-07-31T03:29:51;20.40;67.61
74946;HTU21D;63509;45.250;38.102;2023-07-31T03:32:17;20.43;67.65
74946;HTU21D;63509;45.250;38.102;2023-07-31T03:34:43;20.45;67.69
74946;HTU21D;63509;45.250;38.102;2023-07-31T03:37:09;20.49;67.73
74946;HTU21D;63509;45.250;38.102;2023-07-31T03:39:36;20.54;67.76
74946;HTU21D;63509;45.250;38.102;2023-07-31T03:42:02;20.59;67.75
74946;HTU21D;63509;45.250;38.102;2023-07-31T03:44:28;20.63;67.78
74946;HTU21D;63509;45.250;38.102;2023-07-31T03:46:54;20.70;67.78
74946;HTU21D;63509;45.250;38.102;2023-07-31T03:49:21;20.75;67.79
74946;HTU21D;63509;45.250;38.102;2023-07-31T03:51:47;20.79;67.81
74946;HTU21D;63509;45.250;38.102;2023-07-31T03:54:13;20.86;67.85
74946;HTU21D;63509;45.250;38.102;2023-07-31T03:56:40;20.93;67.90
74946;HTU21D;63509;45.250;38.102;2023-07-31T03:59:06;21.02;68.02
74946;HTU21D;63509;45.250;38.102;2023-07-31T04:01:32;21.11;68.06
74946;HTU21D;63509;45.250;38.102;2023-07-31T04:03:58;21.20;68.10
74946;HTU21D;63509;45.250;38.102;2023-07-31T04:06:24;21.32;68.22
74946;HTU21D;63509;45.250;38.102;2023-07-31T04:08:50;21.44;68.27
74946;HTU21D;63509;45.250;38.102;2023-07-31T04:11:16;21.57;68.13
74946;HTU21D;63509;45.250;38.102;2023-07-31T04:13:43;21.72;68.15
74946;HTU21D;63509;45.250;38.102;2023-07-31T04:16:09;21.89;68.02
74946;HTU21D;63509;45.250;38.102;2023-07-31T04:18:35;22.07;68.02
74946;HTU21D;63509;45.250;38.102;2023-07-31T04:21:01;22.25;67.78
74946;HTU21D;63509;45.250;38.102;2023-07-31T04:23:28;22.41;67.46
74946;HTU21D;63509;45.250;38.102;2023-07-31T04:25:54;22.58;67.53
74946;HTU21D;63509;45.250;38.102;2023-07-31T04:28:20;22.78;67.92
74946;HTU21D;63509;45.250;38.102;2023-07-31T04:30:47;22.95;67.46
74946;HTU21D;63509;45.250;38.102;2023-07-31T04:33:13;23.13;67.20
74946;HTU21D;63509;45.250;38.102;2023-07-31T04:35:39;23.31;67.49
74946;HTU21D;63509;45.250;38.102;2023-07-31T04:38:05;23.47;66.78
74946;HTU21D;63509;45.250;38.102;2023-07-31T04:40:31;23.64;66.38
74946;HTU21D;63509;45.250;38.102;2023-07-31T04:42:58;23.77;66.00
74946;HTU21D;63509;45.250;38.102;2023-07-31T04:45:24;23.91;66.02
74946;HTU21D;63509;45.250;38.102;2023-07-31T04:47:50;24.12;65.85
74946;HTU21D;63509;45.250;38.102;2023-07-31T04:50:16;24.29;65.59
74946;HTU21D;63509;45.250;38.102;2023-07-31T04:52:42;24.47;65.27
74946;HTU21D;63509;45.250;38.102;2023-07-31T04:55:08;24.66;65.14
74946;HTU21D;63509;45.250;38.102;2023-07-31T04:57:34;24.89;64.92
74946;HTU21D;63509;45.250;38.102;2023-07-31T05:00:00;25.12;64.63
74946;HTU21D;63509;45.250;38.102;2023-07-31T05:02:26;25.39;64.45
74946;HTU21D;63509;45.250;38.102;2023-07-31T05:04:52;25.68;64.17
74946;HTU21D;63509;45.250;38.102;2023-07-31T05:07:19;25.97;63.59
74946;HTU21D;63509;45.250;38.102;2023-07-31T05:09:45;26.25;63.32
74946;HTU21D;63509;45.250;38.102;2023-07-31T05:12:11;26.58;62.67
74946;HTU21D;63509;45.250;38.102;2023-07-31T05:14:37;26.86;62.25
74946;HTU21D;63509;45.250;38.102;2023-07-31T05:17:03;27.13;61.71
74946;HTU21D;63509;45.250;38.102;2023-07-31T05:19:29;27.37;61.11
74946;HTU21D;63509;45.250;38.102;2023-07-31T05:21:56;27.59;60.69
74946;HTU21D;63509;45.250;38.102;2023-07-31T05:24:22;27.82;60.31
74946;HTU21D;63509;45.250;38.102;2023-07-31T05:26:48;28.09;59.91
74946;HTU21D;63509;45.250;38.102;2023-07-31T05:29:14;28.32;59.36
74946;HTU21D;63509;45.250;38.102;2023-07-31T05:31:40;28.56;58.88
74946;HTU21D;63509;45.250;38.102;2023-07-31T05:34:06;28.75;58.38
74946;HTU21D;63509;45.250;38.102;2023-07-31T05:36:32;28.94;58.03
74946;HTU21D;63509;45.250;38.102;2023-07-31T05:38:58;29.13;57.58
74946;HTU21D;63509;45.250;38.102;2023-07-31T05:41:24;29.29;57.12
74946;HTU21D;63509;45.250;38.102;2023-07-31T05:43:50;29.45;56.61
74946;HTU21D;63509;45.250;38.102;2023-07-31T05:46:17;29.60;56.27
74946;HTU21D;63509;45.250;38.102;2023-07-31T05:48:43;29.76;55.97
74946;HTU21D;63509;45.250;38.102;2023-07-31T05:51:09;29.92;55.81
74946;HTU21D;63509;45.250;38.102;2023-07-31T05:53:35;30.11;55.41
74946;HTU21D;63509;45.250;38.102;2023-07-31T05:56:06;30.35;55.07
74946;HTU21D;63509;45.250;38.102;2023-07-31T05:58:32;30.54;54.51
74946;HTU21D;63509;45.250;38.102;2023-07-31T06:00:58;30.71;53.89
74946;HTU21D;63509;45.250;38.102;2023-07-31T06:03:24;30.80;53.56
74946;HTU21D;63509;45.250;38.102;2023-07-31T06:05:50;30.94;53.20
74946;HTU21D;63509;45.250;38.102;2023-07-31T06:08:16;31.07;52.85
74946;HTU21D;63509;45.250;38.102;2023-07-31T06:10:42;31.12;52.49
74946;HTU21D;63509;45.250;38.102;2023-07-31T06:13:08;31.22;52.36
74946;HTU21D;63509;45.250;38.102;2023-07-31T06:15:35;31.42;52.17
74946;HTU21D;63509;45.250;38.102;2023-07-31T06:18:00;31.64;51.59
74946;HTU21D;63509;45.250;38.102;2023-07-31T06:20:28;31.86;51.20
74946;HTU21D;63509;45.250;38.102;2023-07-31T06:22:54;32.04;50.83
74946;HTU21D;63509;45.250;38.102;2023-07-31T06:25:20;32.24;50.40
74946;HTU21D;63509;45.250;38.102;2023-07-31T06:27:46;32.42;49.99
74946;HTU21D;63509;45.250;38.102;2023-07-31T06:30:12;32.53;49.64
74946;HTU21D;63509;45.250;38.102;2023-07-31T06:32:39;32.60;49.39
74946;HTU21D;63509;45.250;38.102;2023-07-31T06:35:07;32.73;49.22
74946;HTU21D;63509;45.250;38.102;2023-07-31T06:37:32;32.87;48.87
74946;HTU21D;63509;45.250;38.102;2023-07-31T06:39:59;33.00;48.60
74946;HTU21D;63509;45.250;38.102;2023-07-31T06:42:25;33.16;48.27
74946;HTU21D;63509;45.250;38.102;2023-07-31T06:44:51;33.33;47.89
74946;HTU21D;63509;45.250;38.102;2023-07-31T06:47:17;33.37;47.59
74946;HTU21D;63509;45.250;38.102;2023-07-31T06:49:44;33.44;47.44
74946;HTU21D;63509;45.250;38.102;2023-07-31T06:52:10;33.50;47.34
74946;HTU21D;63509;45.250;38.102;2023-07-31T06:54:37;33.66;47.11
74946;HTU21D;63509;45.250;38.102;2023-07-31T06:57:03;33.89;46.73
74946;HTU21D;63509;45.250;38.102;2023-07-31T06:59:29;34.04;46.31
74946;HTU21D;63509;45.250;38.102;2023-07-31T07:01:55;34.12;45.98
74946;HTU21D;63509;45.250;38.102;2023-07-31T07:04:21;34.30;45.82
74946;HTU21D;63509;45.250;38.102;2023-07-31T07:06:47;34.48;45.48
74946;HTU21D;63509;45.250;38.102;2023-07-31T07:09:13;34.66;45.16
74946;HTU21D;63509;45.250;38.102;2023-07-31T07:11:39;34.82;44.90
74946;HTU21D;63509;45.250;38.102;2023-07-31T07:14:06;35.04;44.58
74946;HTU21D;63509;45.250;38.102;2023-07-31T07:16:32;35.27;44.06
74946;HTU21D;63509;45.250;38.102;2023-07-31T07:18:58;35.48;43.61
74946;HTU21D;63509;45.250;38.102;2023-07-31T07:21:24;35.64;43.23
74946;HTU21D;63509;45.250;38.102;2023-07-31T07:23:50;35.77;43.06
74946;HTU21D;63509;45.250;38.102;2023-07-31T07:26:16;35.86;42.81
74946;HTU21D;63509;45.250;38.102;2023-07-31T07:28:42;36.03;42.43
74946;HTU21D;63509;45.250;38.102;2023-07-31T07:31:18;36.08;42.25
74946;HTU21D;63509;45.250;38.102;2023-07-31T07:33:44;36.15;41.97
74946;HTU21D;63509;45.250;38.102;2023-07-31T07:36:11;36.24;41.71
74946;HTU21D;63509;45.250;38.102;2023-07-31T07:38:38;36.34;41.42
74946;HTU21D;63509;45.250;38.102;2023-07-31T07:41:05;36.52;40.94
74946;HTU21D;63509;45.250;38.102;2023-07-31T07:43:31;36.66;40.84
74946;HTU21D;63509;45.250;38.102;2023-07-31T07:45:57;36.85;40.40
74946;HTU21D;63509;45.250;38.102;2023-07-31T07:48:23;36.97;40.07
74946;HTU21D;63509;45.250;38.102;2023-07-31T07:50:50;36.98;41.45
74946;HTU21D;63509;45.250;38.102;2023-07-31T07:53:17;36.98;40.23
74946;HTU21D;63509;45.250;38.102;2023-07-31T07:55:43;37.11;39.84
74946;HTU21D;63509;45.250;38.102;2023-07-31T07:58:09;37.28;39.39
74946;HTU21D;63509;45.250;38.102;2023-07-31T08:00:35;37.50;38.92
74946;HTU21D;63509;45.250;38.102;2023-07-31T08:03:02;37.62;40.36
74946;HTU21D;63509;45.250;38.102;2023-07-31T08:05:28;37.66;38.84
74946;HTU21D;63509;45.250;38.102;2023-07-31T08:07:54;37.70;38.23
74946;HTU21D;63509;45.250;38.102;2023-07-31T08:10:20;37.66;37.85
74946;HTU21D;63509;45.250;38.102;2023-07-31T08:12:47;37.57;37.82
74946;HTU21D;63509;45.250;38.102;2023-07-31T08:15:13;37.65;37.56
74946;HTU21D;63509;45.250;38.102;2023-07-31T08:17:40;37.74;37.14
74946;HTU21D;63509;45.250;38.102;2023-07-31T08:20:06;37.77;36.96
74946;HTU21D;63509;45.250;38.102;2023-07-31T08:22:33;37.79;36.58
74946;HTU21D;63509;45.250;38.102;2023-07-31T08:24:59;37.79;36.43
74946;HTU21D;63509;45.250;38.102;2023-07-31T08:27:25;37.82;36.26
74946;HTU21D;63509;45.250;38.102;2023-07-31T08:29:52;37.92;36.02
74946;HTU21D;63509;45.250;38.102;2023-07-31T08:32:18;38.04;35.63
74946;HTU21D;63509;45.250;38.102;2023-07-31T08:34:44;38.06;35.45
74946;HTU21D;63509;45.250;38.102;2023-07-31T08:37:11;38.16;35.15
74946;HTU21D;63509;45.250;38.102;2023-07-31T08:39:37;38.21;35.03
74946;HTU21D;63509;45.250;38.102;2023-07-31T08:42:08;38.32;35.02
74946;HTU21D;63509;45.250;38.102;2023-07-31T08:44:35;38.37;34.62
74946;HTU21D;63509;45.250;38.102;2023-07-31T08:47:02;38.45;34.37
74946;HTU21D;63509;45.250;38.102;2023-07-31T08:49:30;38.52;34.19
74946;HTU21D;63509;45.250;38.102;2023-07-31T08:51:56;38.66;33.76
74946;HTU21D;63509;45.250;38.102;2023-07-31T08:54:23;38.80;33.59
74946;HTU21D;63509;45.250;38.102;2023-07-31T08:56:50;38.95;33.43
74946;HTU21D;63509;45.250;38.102;2023-07-31T08:59:19;39.10;33.07
74946;HTU21D;63509;45.250;38.102;2023-07-31T09:01:50;39.21;32.79
74946;HTU21D;63509;45.250;38.102;2023-07-31T09:04:18;39.32;32.51
74946;HTU21D;63509;45.250;38.102;2023-07-31T09:06:46;39.45;32.24
74946;HTU21D;63509;45.250;38.102;2023-07-31T09:09:14;39.55;31.85
74946;HTU21D;63509;45.250;38.102;2023-07-31T09:11:41;39.64;31.56
74946;HTU21D;63509;45.250;38.102;2023-07-31T09:14:08;39.66;31.46
74946;HTU21D;63509;45.250;38.102;2023-07-31T09:16:35;39.66;31.32
74946;HTU21D;63509;45.250;38.102;2023-07-31T09:19:01;39.66;31.29
74946;HTU21D;63509;45.250;38.102;2023-07-31T09:21:31;39.68;31.18
74946;HTU21D;63509;45.250;38.102;2023-07-31T09:23:57;39.80;31.09
74946;HTU21D;63509;45.250;38.102;2023-07-31T09:26:31;39.94;31.14
74946;HTU21D;63509;45.250;38.102;2023-07-31T09:29:01;40.04;30.79
74946;HTU21D;63509;45.250;38.102;2023-07-31T09:31:47;40.23;30.85
74946;HTU21D;63509;45.250;38.102;2023-07-31T09:34:13;40.08;30.32
74946;HTU21D;63509;45.250;38.102;2023-07-31T09:36:44;39.91;30.32
74946;HTU21D;63509;45.250;38.102;2023-07-31T09:39:11;39.77;30.35
74946;HTU21D;63509;45.250;38.102;2023-07-31T09:41:39;39.68;30.27
74946;HTU21D;63509;45.250;38.102;2023-07-31T09:44:06;39.64;30.25
74946;HTU21D;63509;45.250;38.102;2023-07-31T09:46:35;39.62;30.49
74946;HTU21D;63509;45.250;38.102;2023-07-31T09:49:12;39.64;30.68
74946;HTU21D;63509;45.250;38.102;2023-07-31T09:51:39;39.62;30.48
74946;HTU21D;63509;45.250;38.102;2023-07-31T09:54:12;39.58;31.70
74946;HTU21D;63509;45.250;38.102;2023-07-31T09:56:41;39.54;32.33
74946;HTU21D;63509;45.250;38.102;2023-07-31T09:59:08;39.61;31.28
74946;HTU21D;63509;45.250;38.102;2023-07-31T10:01:38;39.66;30.93
74946;HTU21D;63509;45.250;38.102;2023-07-31T10:04:06;39.65;30.38
74946;HTU21D;63509;45.250;38.102;2023-07-31T10:06:34;39.52;30.25
74946;HTU21D;63509;45.250;38.102;2023-07-31T10:09:02;39.35;30.18
74946;HTU21D;63509;45.250;38.102;2023-07-31T10:11:30;39.36;30.01
74946;HTU21D;63509;45.250;38.102;2023-07-31T10:14:00;39.50;29.55
74946;HTU21D;63509;45.250;38.102;2023-07-31T10:16:27;39.68;29.30
74946;HTU21D;63509;45.250;38.102;2023-07-31T10:18:54;39.76;29.16
74946;HTU21D;63509;45.250;38.102;2023-07-31T10:21:20;39.74;29.06
74946;HTU21D;63509;45.250;38.102;2023-07-31T10:23:47;39.80;28.79
74946;HTU21D;63509;45.250;38.102;2023-07-31T10:26:17;39.92;28.91
74946;HTU21D;63509;45.250;38.102;2023-07-31T10:28:46;40.01;28.60
74946;HTU21D;63509;45.250;38.102;2023-07-31T10:31:14;39.99;28.40
74946;HTU21D;63509;45.250;38.102;2023-07-31T10:33:41;40.00;28.30
74946;HTU21D;63509;45.250;38.102;2023-07-31T10:36:17;40.02;28.56
74946;HTU21D;63509;45.250;38.102;2023-07-31T10:38:44;39.98;28.26
74946;HTU21D;63509;45.250;38.102;2023-07-31T10:41:11;39.97;28.14
74946;HTU21D;63509;45.250;38.102;2023-07-31T10:43:38;39.98;27.89
74946;HTU21D;63509;45.250;38.102;2023-07-31T10:46:12;39.97;28.05
74946;HTU21D;63509;45.250;38.102;2023-07-31T10:48:41;39.86;27.59
74946;HTU21D;63509;45.250;38.102;2023-07-31T10:51:08;39.72;27.63
74946;HTU21D;63509;45.250;38.102;2023-07-31T10:53:39;39.63;27.74
74946;HTU21D;63509;45.250;38.102;2023-07-31T10:56:08;39.68;27.90
74946;HTU21D;63509;45.250;38.102;2023-07-31T10:58:36;39.72;27.81
74946;HTU21D;63509;45.250;38.102;2023-07-31T11:01:03;39.86;27.73
74946;HTU21D;63509;45.250;38.102;2023-07-31T11:03:55;40.00;27.78
74946;HTU21D;63509;45.250;38.102;2023-07-31T11:06:29;40.00;27.71
74946;HTU21D;63509;45.250;38.102;2023-07-31T11:08:56;39.98;27.19
74946;HTU21D;63509;45.250;38.102;2023-07-31T11:11:22;39.94;27.07
74946;HTU21D;63509;45.250;38.102;2023-07-31T11:13:50;39.98;27.18
74946;HTU21D;63509;45.250;38.102;2023-07-31T11:16:22;40.01;27.02
74946;HTU21D;63509;45.250;38.102;2023-07-31T11:18:49;39.99;26.84
74946;HTU21D;63509;45.250;38.102;2023-07-31T11:21:22;39.89;26.91
74946;HTU21D;63509;45.250;38.102;2023-07-31T11:23:50;39.88;26.99
74946;HTU21D;63509;45.250;38.102;2023-07-31T11:26:18;39.95;27.00
74946;HTU21D;63509;45.250;38.102;2023-07-31T11:28:47;40.02;26.97
74946;HTU21D;63509;45.250;38.102;2023-07-31T11:31:13;40.09;26.68
74946;HTU21D;63509;45.250;38.102;2023-07-31T11:33:39;40.15;26.61
74946;HTU21D;63509;45.250;38.102;2023-07-31T11:36:05;40.17;26.46
74946;HTU21D;63509;45.250;38.102;2023-07-31T11:38:33;40.29;26.37
74946;HTU21D;63509;45.250;38.102;2023-07-31T11:41:01;40.30;26.29
74946;HTU21D;63509;45.250;38.102;2023-07-31T11:43:33;40.30;26.40
74946;HTU21D;63509;45.250;38.102;2023-07-31T11:46:02;40.27;26.18
74946;HTU21D;63509;45.250;38.102;2023-07-31T11:48:33;40.28;26.33
74946;HTU21D;63509;45.250;38.102;2023-07-31T11:51:02;40.29;26.09
74946;HTU21D;63509;45.250;38.102;2023-07-31T11:53:41;40.21;26.19
74946;HTU21D;63509;45.250;38.102;2023-07-31T11:56:09;40.07;26.05
74946;HTU21D;63509;45.250;38.102;2023-07-31T11:58:37;39.94;26.10
74946;HTU21D;63509;45.250;38.102;2023-07-31T12:01:04;39.85;26.06
74946;HTU21D;63509;45.250;38.102;2023-07-31T12:03:31;39.70;26.14
74946;HTU21D;63509;45.250;38.102;2023-07-31T12:05:58;39.62;26.20
74946;HTU21D;63509;45.250;38.102;2023-07-31T12:08:25;39.53;26.33
74946;HTU21D;63509;45.250;38.102;2023-07-31T12:10:52;39.44;26.33
74946;HTU21D;63509;45.250;38.102;2023-07-31T12:13:22;39.35;26.46
74946;HTU21D;63509;45.250;38.102;2023-07-31T12:15:48;39.24;26.27
74946;HTU21D;63509;45.250;38.102;2023-07-31T12:18:18;39.22;26.22
74946;HTU21D;63509;45.250;38.102;2023-07-31T12:20:46;39.23;26.29
74946;HTU21D;63509;45.250;38.102;2023-07-31T12:23:20;39.32;26.38
74946;HTU21D;63509;45.250;38.102;2023-07-31T12:26:06;39.30;26.42
74946;HTU21D;63509;45.250;38.102;2023-07-31T12:28:47;39.30;26.47
74946;HTU21D;63509;45.250;38.102;2023-07-31T12:31:23;39.19;26.47
74946;HTU21D;63509;45.250;38.102;2023-07-31T12:33:50;39.08;26.37
74946;HTU21D;63509;45.250;38.102;2023-07-31T12:36:18;38.99;26.30
74946;HTU21D;63509;45.250;38.102;2023-07-31T12:38:46;38.94;26.30
74946;HTU21D;63509;45.250;38.102;2023-07-31T12:41:12;38.89;26.36
74946;HTU21D;63509;45.250;38.102;2023-07-31T12:43:40;38.86;26.49
74946;HTU21D;63509;45.250;38.102;2023-07-31T12:46:07;38.81;26.42
74946;HTU21D;63509;45.250;38.102;2023-07-31T12:48:34;38.80;26.38
74946;HTU21D;63509;45.250;38.102;2023-07-31T12:51:01;38.73;26.42
74946;HTU21D;63509;45.250;38.102;2023-07-31T12:53:28;38.63;27.29
74946;HTU21D;63509;45.250;38.102;2023-07-31T12:55:55;38.50;26.94
74946;HTU21D;63509;45.250;38.102;2023-07-31T12:58:21;38.38;27.67
74946;HTU21D;63509;45.250;38.102;2023-07-31T13:00:47;38.29;27.18
74946;HTU21D;63509;45.250;38.102;2023-07-31T13:03:13;38.28;27.00
74946;HTU21D;63509;45.250;38.102;2023-07-31T13:05:39;38.19;26.96
74946;HTU21D;63509;45.250;38.102;2023-07-31T13:08:06;38.14;27.03
74946;HTU21D;63509;45.250;38.102;2023-07-31T13:10:32;38.14;27.03
74946;HTU21D;63509;45.250;38.102;2023-07-31T13:12:58;38.09;27.00
74946;HTU21D;63509;45.250;38.102;2023-07-31T13:15:24;38.00;27.09
74946;HTU21D;63509;45.250;38.102;2023-07-31T13:17:51;37.90;27.13
74946;HTU21D;63509;45.250;38.102;2023-07-31T13:20:17;37.81;27.15
74946;HTU21D;63509;45.250;38.102;2023-07-31T13:22:43;37.69;27.29
74946;HTU21D;63509;45.250;38.102;2023-07-31T13:25:09;37.57;27.31
74946;HTU21D;63509;45.250;38.102;2023-07-31T13:27:36;37.48;27.42
74946;HTU21D;63509;45.250;38.102;2023-07-31T13:30:02;37.40;27.49
74946;HTU21D;63509;45.250;38.102;2023-07-31T13:32:29;37.28;27.54
74946;HTU21D;63509;45.250;38.102;2023-07-31T13:34:55;37.17;27.55
74946;HTU21D;63509;45.250;38.102;2023-07-31T13:37:22;37.10;27.62
74946;HTU21D;63509;45.250;38.102;2023-07-31T13:39:48;36.99;27.77
74946;HTU21D;63509;45.250;38.102;2023-07-31T13:42:14;36.96;27.80
74946;HTU21D;63509;45.250;38.102;2023-07-31T13:44:41;36.84;27.94
74946;HTU21D;63509;45.250;38.102;2023-07-31T13:47:09;36.72;28.07
74946;HTU21D;63509;45.250;38.102;2023-07-31T13:49:35;36.63;27.98
74946;HTU21D;63509;45.250;38.102;2023-07-31T13:52:02;36.51;27.94
74946;HTU21D;63509;45.250;38.102;2023-07-31T13:54:29;36.43;28.02
74946;HTU21D;63509;45.250;38.102;2023-07-31T13:56:55;36.37;28.08
74946;HTU21D;63509;45.250;38.102;2023-07-31T13:59:21;36.26;28.10
74946;HTU21D;63509;45.250;38.102;2023-07-31T14:01:48;36.15;28.25
74946;HTU21D;63509;45.250;38.102;2023-07-31T14:04:14;36.03;28.42
74946;HTU21D;63509;45.250;38.102;2023-07-31T14:06:40;35.92;28.54
74946;HTU21D;63509;45.250;38.102;2023-07-31T14:09:06;35.82;28.68
74946;HTU21D;63509;45.250;38.102;2023-07-31T14:11:33;35.75;28.71
74946;HTU21D;63509;45.250;38.102;2023-07-31T14:13:59;35.62;28.85
74946;HTU21D;63509;45.250;38.102;2023-07-31T14:16:27;35.52;28.95
74946;HTU21D;63509;45.250;38.102;2023-07-31T14:18:54;35.44;29.07
74946;HTU21D;63509;45.250;38.102;2023-07-31T14:21:20;35.34;29.28
74946;HTU21D;63509;45.250;38.102;2023-07-31T14:23:46;35.26;29.40
74946;HTU21D;63509;45.250;38.102;2023-07-31T14:26:12;35.22;29.39
74946;HTU21D;63509;45.250;38.102;2023-07-31T14:28:39;35.26;29.48
74946;HTU21D;63509;45.250;38.102;2023-07-31T14:31:05;35.30;29.42
74946;HTU21D;63509;45.250;38.102;2023-07-31T14:33:31;35.36;29.42
74946;HTU21D;63509;45.250;38.102;2023-07-31T14:35:59;35.42;29.37
74946;HTU21D;63509;45.250;38.102;2023-07-31T14:38:25;35.44;29.70
74946;HTU21D;63509;45.250;38.102;2023-07-31T14:40:51;35.49;29.59
74946;HTU21D;63509;45.250;38.102;2023-07-31T14:43:17;35.56;29.59
74946;HTU21D;63509;45.250;38.102;2023-07-31T14:45:43;35.60;29.50
74946;HTU21D;63509;45.250;38.102;2023-07-31T14:48:12;35.65;29.60
74946;HTU21D;63509;45.250;38.102;2023-07-31T14:50:38;35.66;29.57
74946;HTU21D;63509;45.250;38.102;2023-07-31T14:53:04;35.68;29.55
74946;HTU21D;63509;45.250;38.102;2023-07-31T14:55:30;35.68;29.65
74946;HTU21D;63509;45.250;38.102;2023-07-31T14:57:57;35.68;29.70
74946;HTU21D;63509;45.250;38.102;2023-07-31T15:00:23;35.66;29.61
74946;HTU21D;63509;45.250;38.102;2023-07-31T15:02:50;35.64;29.57
74946;HTU21D;63509;45.250;38.102;2023-07-31T15:05:16;35.58;29.55